Time;durP1;ratioP1;P1;durP2;ratioP2;P2;SDS_P1;SDS_P2;PMS_P1;PMS_P2;Temp;Humidity;BMP_temperature;BMP_pressure;BME280_temperature;BME280_humidity;BME280_pressure;Samples;Min_cycle;Max_cycle;Signal;HPM_P1;HPM_P2
2021/10/08 00:01:51;;;;;;;22.13;17.33;;;;;;;12.24;86.40;100263.81;5042870;28;20230;-80
2021/10/08 00:04:19;;;;;;;22.97;17.87;;;;;;;12.25;86.60;100277.06;5028453;28;20289;-80
2021/10/08 00:06:50;;;;;;;22.17;17.73;;;;;;;12.21;86.77;100277.69;5028111;28;20223;-80
2021/10/08 00:09:22;;;;;;;21.67;18.13;;;;;;;12.17;86.85;100271.13;5028462;28;20390;-80
2021/10/08 00:11:53;;;;;;;23.27;18.03;;;;;;;12.24;87.13;100282.63;5027546;28;20298;-80
2021/10/08 00:14:29;;;;;;;23.97;18.87;;;;;;;12.33;85.84;100275.97;5027414;28;20241;-80
2021/10/08 00:17:03;;;;;;;22.17;17.47;;;;;;;12.27;86.40;100287.59;5025621;28;20223;-80
2021/10/08 00:19:35;;;;;;;26.53;19.00;;;;;;;12.25;86.60;100282.44;5028803;28;20250;-80
2021/10/08 00:22:15;;;;;;;23.93;18.80;;;;;;;12.25;86.58;100278.91;5027741;28;20183;-80
2021/10/08 00:24:51;;;;;;;24.73;18.63;;;;;;;12.20;86.95;100284.94;5026914;28;20226;-80
2021/10/08 00:27:21;;;;;;;23.47;18.90;;;;;;;12.28;86.55;100286.53;5026719;28;20234;-80
2021/10/08 00:29:48;;;;;;;23.13;20.00;;;;;;;12.21;86.87;100275.00;5026962;28;20225;-80
2021/10/08 00:32:15;;;;;;;26.87;19.77;;;;;;;12.18;87.01;100270.03;5042443;28;20245;-80
2021/10/08 00:34:46;;;;;;;24.10;20.13;;;;;;;12.16;86.26;100272.97;5041133;28;20227;-79
2021/10/08 00:37:15;;;;;;;24.90;20.30;;;;;;;12.23;86.48;100276.44;5026798;28;20231;-80
2021/10/08 00:39:46;;;;;;;25.03;19.83;;;;;;;12.21;86.33;100281.22;5027271;28;20245;-80
2021/10/08 00:42:28;;;;;;;28.10;21.60;;;;;;;12.23;86.64;100286.34;5044011;23;20220;-79
2021/10/08 00:44:57;;;;;;;25.10;20.53;;;;;;;12.20;86.90;100287.63;5050275;28;20212;-80
2021/10/08 00:47:25;;;;;;;25.87;20.40;;;;;;;12.06;87.16;100269.09;5066637;28;20249;-80
2021/10/08 00:49:53;;;;;;;26.97;21.30;;;;;;;12.18;86.92;100284.31;5049378;28;20221;-80
2021/10/08 00:52:20;;;;;;;27.07;20.93;;;;;;;12.17;86.66;100279.16;5050673;28;20187;-79
2021/10/08 00:54:52;;;;;;;24.90;20.63;;;;;;;12.15;86.54;100284.75;5066233;28;20217;-79
2021/10/08 00:57:27;;;;;;;24.10;20.00;;;;;;;12.21;86.66;100293.81;5065002;28;20240;-80
2021/10/08 00:59:57;;;;;;;24.33;20.73;;;;;;;12.20;86.15;100290.31;5064441;28;20252;-80
2021/10/08 01:02:24;;;;;;;25.87;21.00;;;;;;;12.07;86.37;100281.47;5029733;28;20599;-80
2021/10/08 01:04:56;;;;;;;24.67;20.73;;;;;;;12.08;86.27;100288.50;5065117;28;20274;-80
2021/10/08 01:07:30;;;;;;;25.07;20.90;;;;;;;12.07;86.10;100292.22;5047839;28;20256;-80
2021/10/08 01:10:06;;;;;;;24.17;20.47;;;;;;;11.98;86.41;100288.97;5047921;28;20316;-80
2021/10/08 01:12:39;;;;;;;26.97;21.80;;;;;;;12.10;86.28;100299.84;5051511;28;20216;-80
2021/10/08 01:15:09;;;;;;;28.93;20.83;;;;;;;12.02;86.30;100295.56;5046534;28;20570;-79
2021/10/08 01:17:38;;;;;;;23.07;19.97;;;;;;;12.03;86.29;100293.69;5045904;28;20233;-80
2021/10/08 01:20:11;;;;;;;25.53;21.23;;;;;;;12.04;86.69;100301.53;5030373;28;20256;-80
2021/10/08 01:22:49;;;;;;;27.03;21.63;;;;;;;11.98;86.27;100306.94;5050190;28;20227;-79
2021/10/08 01:25:22;;;;;;;27.50;22.00;;;;;;;11.99;86.45;100297.84;5067954;28;20255;-79
2021/10/08 01:27:52;;;;;;;26.80;21.50;;;;;;;12.01;86.36;100306.50;5068236;28;20217;-79
2021/10/08 01:30:34;;;;;;;25.90;21.30;;;;;;;11.96;86.08;100292.88;5051381;28;20221;-79
2021/10/08 01:33:04;;;;;;;23.77;21.00;;;;;;;11.98;85.24;100301.56;5053197;28;20213;-79
2021/10/08 01:35:40;;;;;;;27.73;20.70;;;;;;;11.84;84.21;100301.63;5069924;28;20233;-80
2021/10/08 01:38:13;;;;;;;20.53;18.27;;;;;;;12.01;81.72;100318.06;5051499;28;20228;-79
2021/10/08 01:40:44;;;;;;;23.93;19.43;;;;;;;12.04;81.93;100298.84;5069929;28;20632;-79
2021/10/08 01:43:18;;;;;;;23.13;18.70;;;;;;;11.80;81.87;100316.47;5069551;28;20221;-80
2021/10/08 01:45:50;;;;;;;22.53;16.87;;;;;;;11.86;80.38;100304.06;5053164;28;20241;-80
2021/10/08 01:48:53;;;;;;;24.53;17.63;;;;;;;11.80;81.47;100313.00;5057950;28;20232;-79
2021/10/08 01:51:33;;;;;;;20.40;16.03;;;;;;;11.72;81.39;100303.28;5070816;28;20223;-79
2021/10/08 01:54:07;;;;;;;25.10;17.13;;;;;;;11.76;81.11;100306.34;5054186;28;20185;-80
2021/10/08 01:56:44;;;;;;;19.60;15.67;;;;;;;11.75;80.28;100316.31;5069973;28;20248;-80
2021/10/08 01:59:15;;;;;;;22.03;15.70;;;;;;;11.68;80.14;100320.00;5070239;28;20666;-80
2021/10/08 02:01:45;;;;;;;19.03;14.37;;;;;;;11.61;79.62;100317.34;5050781;28;20235;-80
2021/10/08 02:04:18;;;;;;;17.00;13.80;;;;;;;11.70;77.80;100321.44;5067525;28;20189;-79
2021/10/08 02:06:48;;;;;;;18.97;13.90;;;;;;;11.61;78.03;100320.03;5049079;28;20551;-80
2021/10/08 02:09:17;;;;;;;20.07;13.73;;;;;;;11.56;78.13;100319.00;5030915;28;20229;-79
2021/10/08 02:11:44;;;;;;;18.43;13.37;;;;;;;11.48;78.13;100334.25;5049213;28;20279;-80
2021/10/08 02:14:15;;;;;;;19.40;13.40;;;;;;;11.34;77.86;100318.38;5049439;28;20229;-80
2021/10/08 02:16:52;;;;;;;21.17;14.40;;;;;;;11.33;79.21;100336.38;5067603;28;20251;-80
2021/10/08 02:19:23;;;;;;;20.10;14.40;;;;;;;11.26;78.75;100327.47;5065998;28;20241;-81
2021/10/08 02:22:20;;;;;;;18.30;13.93;;;;;;;11.16;79.13;100327.06;5048932;28;20230;-79
2021/10/08 02:24:51;;;;;;;17.33;14.03;;;;;;;11.16;79.72;100326.22;5048696;28;20292;-79
2021/10/08 02:27:20;;;;;;;19.30;13.80;;;;;;;11.23;78.08;100329.75;5051012;28;20233;-80
2021/10/08 02:29:52;;;;;;;18.90;14.30;;;;;;;11.11;78.99;100326.84;5050614;28;20237;-80
2021/10/08 02:32:49;;;;;;;16.70;13.50;;;;;;;11.04;79.97;100332.22;5057316;23;20538;-80
2021/10/08 02:35:20;;;;;;;20.57;13.67;;;;;;;10.98;80.00;100326.84;5053453;28;20251;-80
2021/10/08 02:37:50;;;;;;;17.60;13.97;;;;;;;11.00;79.76;100332.84;5060211;23;20237;-80
2021/10/08 02:40:20;;;;;;;15.97;13.43;;;;;;;10.97;79.57;100328.69;5077075;22;20252;-79
2021/10/08 02:42:57;;;;;;;16.07;12.33;;;;;;;10.97;79.49;100325.19;5051379;28;20213;-80
2021/10/08 02:45:32;;;;;;;18.90;12.90;;;;;;;10.93;78.55;100318.59;5049345;28;20295;-80
2021/10/08 02:48:01;;;;;;;15.97;12.73;;;;;;;10.88;79.01;100319.22;5042769;23;20268;-80
2021/10/08 02:50:29;;;;;;;16.23;12.63;;;;;;;10.95;78.10;100320.06;5026623;28;20233;-80
2021/10/08 02:53:03;;;;;;;17.27;12.70;;;;;;;10.85;78.27;100327.66;5028404;28;20225;-80
2021/10/08 02:55:36;;;;;;;20.23;13.47;;;;;;;10.88;79.15;100327.25;5028727;28;20226;-80
2021/10/08 02:58:05;;;;;;;18.17;13.53;;;;;;;10.82;78.45;100325.41;5046337;28;20234;-79
2021/10/08 03:00:35;;;;;;;17.97;12.87;;;;;;;10.85;78.76;100329.53;5055277;23;20225;-79
2021/10/08 03:03:04;;;;;;;16.57;12.93;;;;;;;10.82;78.87;100325.41;5027653;28;20916;-79
2021/10/08 03:05:35;;;;;;;20.13;13.37;;;;;;;10.73;79.22;100342.69;5029160;28;20297;-80
2021/10/08 03:08:07;;;;;;;17.00;13.57;;;;;;;10.75;79.68;100343.31;5031160;28;20284;-79
2021/10/08 03:10:44;;;;;;;16.57;12.73;;;;;;;10.71;79.43;100343.94;5053253;28;20241;-79
2021/10/08 03:13:20;;;;;;;19.23;12.93;;;;;;;10.68;80.41;100349.72;5073324;23;20232;-79
2021/10/08 03:16:01;;;;;;;20.13;13.00;;;;;;;10.66;81.09;100354.44;5058324;23;20256;-78
2021/10/08 03:18:31;;;;;;;14.57;13.03;;;;;;;10.65;81.23;100353.59;5036075;28;20198;-79
2021/10/08 03:21:04;;;;;;;19.17;13.30;;;;;;;10.66;81.52;100357.94;5035258;28;20651;-79
2021/10/08 03:23:37;;;;;;;15.43;13.10;;;;;;;10.64;81.65;100353.81;5049836;28;20226;-80
2021/10/08 03:26:18;;;;;;;17.70;14.40;;;;;;;10.58;82.09;100347.41;5043470;28;20226;-79
2021/10/08 03:29:00;;;;;;;18.70;13.53;;;;;;;10.70;81.67;100355.66;5083435;23;20261;-79
2021/10/08 03:31:37;;;;;;;19.60;14.90;;;;;;;10.53;81.31;100342.66;5079166;28;20224;-80
2021/10/08 03:34:10;;;;;;;19.97;13.77;;;;;;;10.64;81.75;100362.66;5050863;28;20201;-78
2021/10/08 03:40:33;;;;;;;17.73;13.40;;;;;;;10.71;81.65;100379.59;5033916;28;20220;-79
2021/10/08 03:43:05;;;;;;;16.30;14.07;;;;;;;10.68;81.96;100368.47;5051825;28;20230;-79
2021/10/08 03:45:54;;;;;;;21.17;13.80;;;;;;;10.75;81.42;100377.34;5065593;22;20241;-79
2021/10/08 03:51:51;;;;;;;17.43;14.50;;;;;;;10.72;82.58;100378.56;5040530;28;20221;-79
2021/10/08 03:54:23;;;;;;;20.20;14.30;;;;;;;10.70;82.61;100371.75;5080217;23;20224;-79
2021/10/08 03:57:04;;;;;;;19.47;15.07;;;;;;;10.74;83.13;100379.19;5087166;23;20227;-80
2021/10/08 03:59:49;;;;;;;17.93;14.13;;;;;;;10.73;83.44;100382.09;5024072;28;20275;-79
2021/10/08 04:02:29;;;;;;;18.43;14.97;;;;;;;10.67;83.82;100378.34;5055070;28;20249;-79
2021/10/08 04:05:27;;;;;;;19.77;15.67;;;;;;;10.76;83.30;100390.53;5054475;28;20217;-79
2021/10/08 04:08:17;;;;;;;20.90;14.87;;;;;;;10.76;83.45;100385.19;5053862;23;20225;-79
2021/10/08 04:11:13;;;;;;;18.00;14.87;;;;;;;10.80;83.55;100396.31;5058696;28;20221;-80
2021/10/08 04:13:45;;;;;;;22.80;14.90;;;;;;;10.78;83.59;100393.03;5073106;28;20248;-80
2021/10/08 04:16:17;;;;;;;18.80;14.93;;;;;;;10.76;83.62;100393.22;5042142;28;20205;-80
2021/10/08 04:18:53;;;;;;;17.23;14.07;;;;;;;10.73;83.41;100388.25;5060667;28;20245;-80
2021/10/08 04:21:41;;;;;;;17.27;15.10;;;;;;;10.80;83.23;100397.16;5054780;28;20313;-79
2021/10/08 04:24:18;;;;;;;20.40;15.23;;;;;;;10.67;82.91;100382.88;5050925;28;20625;-79
2021/10/08 04:26:46;;;;;;;20.13;15.60;;;;;;;10.67;83.93;100398.97;5025673;23;20226;-80
2021/10/08 04:29:23;;;;;;;18.10;14.57;;;;;;;10.71;83.92;100401.03;5088699;28;20188;-80
2021/10/08 04:31:52;;;;;;;19.30;15.13;;;;;;;10.63;84.09;100384.31;5054364;28;20216;-79
2021/10/08 04:34:27;;;;;;;17.50;14.13;;;;;;;10.67;84.03;100401.66;5087996;28;20256;-80
2021/10/08 04:36:56;;;;;;;20.60;14.13;;;;;;;10.67;83.91;100407.84;5086959;28;20216;-79
2021/10/08 04:39:24;;;;;;;19.37;14.43;;;;;;;10.65;83.78;100392.97;5066689;28;20181;-79
2021/10/08 04:41:56;;;;;;;21.07;14.60;;;;;;;10.73;82.09;100398.16;5084243;28;20247;-79
2021/10/08 04:44:24;;;;;;;19.37;15.10;;;;;;;10.71;82.11;100406.41;5083702;28;20220;-79
2021/10/08 04:47:05;;;;;;;17.97;13.33;;;;;;;10.85;81.08;100410.78;5085254;28;20228;-79
2021/10/08 04:49:52;;;;;;;19.63;14.07;;;;;;;10.91;81.00;100409.16;5059056;23;20237;-79
2021/10/08 04:52:24;;;;;;;20.70;13.97;;;;;;;10.78;81.24;100409.13;5076274;23;20233;-79
2021/10/08 04:54:53;;;;;;;20.87;14.23;;;;;;;10.74;81.44;100406.00;5067991;28;20194;-79
2021/10/08 04:57:26;;;;;;;19.40;14.50;;;;;;;10.66;81.86;100398.13;5066475;28;20225;-79
2021/10/08 04:59:57;;;;;;;18.77;13.97;;;;;;;10.60;81.93;100393.56;5051368;28;20588;-79
2021/10/08 05:02:30;;;;;;;20.83;13.67;;;;;;;10.66;81.74;100402.66;5051973;28;20213;-79
2021/10/08 05:04:58;;;;;;;19.93;14.00;;;;;;;10.67;81.58;100407.84;5052728;28;20280;-79
2021/10/08 05:07:36;;;;;;;17.93;14.17;;;;;;;10.69;81.19;100415.66;5071538;28;20540;-79
2021/10/08 05:10:10;;;;;;;17.40;13.33;;;;;;;10.65;81.18;100412.56;5071800;28;20300;-79
2021/10/08 05:12:43;;;;;;;17.67;12.80;;;;;;;10.75;80.76;100418.38;5053544;28;20259;-79
2021/10/08 05:15:20;;;;;;;18.57;13.10;;;;;;;10.69;79.89;100411.13;5071586;28;20224;-79
2021/10/08 05:17:51;;;;;;;18.60;13.23;;;;;;;10.72;79.92;100424.13;5071884;28;20178;-79
2021/10/08 05:20:26;;;;;;;16.80;12.60;;;;;;;10.63;80.51;100421.84;5072576;28;20213;-79
2021/10/08 05:23:00;;;;;;;19.13;13.47;;;;;;;10.58;80.65;100417.09;5051847;28;20255;-79
2021/10/08 05:25:27;;;;;;;17.70;12.80;;;;;;;10.60;80.72;100417.69;5068962;28;20256;-79
2021/10/08 05:27:57;;;;;;;19.50;13.20;;;;;;;10.73;79.98;100428.44;5058442;23;20233;-79
2021/10/08 05:30:34;;;;;;;20.90;13.33;;;;;;;10.71;79.29;100422.47;5052228;28;20308;-79
2021/10/08 05:33:02;;;;;;;21.07;13.50;;;;;;;10.75;79.49;100433.63;5071166;28;20195;-79
2021/10/08 05:35:41;;;;;;;18.77;13.73;;;;;;;10.76;79.88;100422.72;5068980;28;20663;-79
2021/10/08 05:38:12;;;;;;;24.43;13.87;;;;;;;10.81;78.62;100427.47;5050504;28;20224;-79
2021/10/08 05:40:47;;;;;;;16.93;13.70;;;;;;;10.87;78.70;100430.16;5064209;28;20232;-79
2021/10/08 05:43:16;;;;;;;22.93;13.97;;;;;;;10.88;78.47;100434.47;5071040;28;20224;-79
2021/10/08 05:45:50;;;;;;;16.43;12.97;;;;;;;10.94;78.11;100438.22;5069868;28;20220;-79
2021/10/08 05:48:18;;;;;;;21.00;13.60;;;;;;;10.93;77.84;100441.91;5068635;28;20321;-79
2021/10/08 05:50:45;;;;;;;17.50;12.70;;;;;;;10.95;77.64;100438.03;5051309;28;20244;-79
2021/10/08 05:53:18;;;;;;;20.97;13.57;;;;;;;11.01;77.30;100433.72;5052453;28;20533;-79
2021/10/08 05:55:47;;;;;;;17.70;13.40;;;;;;;11.05;78.02;100445.69;5036292;28;20213;-79
2021/10/08 05:58:14;;;;;;;19.00;13.17;;;;;;;11.11;78.35;100447.53;5050957;28;20220;-79
2021/10/08 06:00:43;;;;;;;17.43;13.50;;;;;;;11.17;78.47;100449.41;5035196;28;20229;-79
2021/10/08 06:03:12;;;;;;;19.10;14.43;;;;;;;11.32;79.14;100462.66;5068858;28;20241;-79
2021/10/08 06:05:45;;;;;;;17.53;13.43;;;;;;;11.30;78.76;100452.09;5052047;28;20225;-79
2021/10/08 06:08:12;;;;;;;20.57;13.90;;;;;;;11.44;78.03;100461.81;5069178;28;20225;-79
2021/10/08 06:10:50;;;;;;;19.13;13.90;;;;;;;11.51;77.80;100453.78;5066282;28;20224;-79
2021/10/08 06:13:19;;;;;;;20.67;13.50;;;;;;;11.64;77.75;100463.69;5068843;28;20226;-79
2021/10/08 06:15:51;;;;;;;18.57;13.50;;;;;;;11.74;77.41;100473.03;5050507;28;20194;-79
2021/10/08 06:18:20;;;;;;;19.53;13.83;;;;;;;11.78;76.09;100462.69;5050816;28;20232;-79
2021/10/08 06:20:47;;;;;;;20.30;13.33;;;;;;;11.92;76.15;100475.09;5068552;28;20227;-79
2021/10/08 06:23:18;;;;;;;16.73;13.57;;;;;;;12.01;76.05;100476.53;5076186;23;20231;-80
2021/10/08 06:25:48;;;;;;;17.20;13.10;;;;;;;12.15;75.62;100482.69;5051241;28;20226;-79
2021/10/08 06:28:23;;;;;;;18.50;13.33;;;;;;;12.27;74.44;100478.34;5037712;28;20220;-79
2021/10/08 06:30:51;;;;;;;25.27;13.60;;;;;;;12.35;73.56;100486.19;5067313;28;20666;-79
2021/10/08 06:33:19;;;;;;;17.33;12.03;;;;;;;12.47;73.15;100481.81;5068270;28;20225;-79
2021/10/08 06:35:52;;;;;;;16.57;12.83;;;;;;;12.60;73.44;100489.81;5051030;28;20237;-79
2021/10/08 06:38:24;;;;;;;18.20;13.00;;;;;;;12.67;72.43;100487.94;5063487;28;20224;-79
2021/10/08 06:40:54;;;;;;;15.00;12.30;;;;;;;12.80;72.58;100487.06;5048393;28;20188;-79
2021/10/08 06:43:25;;;;;;;21.20;13.40;;;;;;;12.82;72.46;100493.06;5058715;23;20228;-79
2021/10/08 06:46:01;;;;;;;19.20;12.80;;;;;;;12.89;71.14;100495.72;5035862;28;20303;-79
2021/10/08 06:48:30;;;;;;;17.20;12.70;;;;;;;12.84;70.82;100482.91;5051441;28;20523;-79
2021/10/08 06:50:59;;;;;;;20.73;12.97;;;;;;;12.94;70.80;100498.59;5071215;28;20226;-80
2021/10/08 06:56:00;;;;;;;19.60;12.80;;;;;;;12.87;70.20;100500.50;4984007;28;20227;-79
2021/10/08 06:58:48;;;;;;;18.63;13.00;;;;;;;12.88;70.54;100504.84;5009597;23;20237;-79
2021/10/08 07:01:23;;;;;;;17.57;12.70;;;;;;;12.88;69.79;100512.91;5045390;28;20234;-80
2021/10/08 07:03:54;;;;;;;17.90;13.00;;;;;;;12.85;70.50;100500.69;5034896;28;20222;-79
2021/10/08 07:06:39;;;;;;;17.43;12.67;;;;;;;12.90;70.13;100503.56;5060922;23;20256;-79
2021/10/08 07:09:28;;;;;;;17.57;12.90;;;;;;;12.66;70.33;100512.34;5025505;28;20233;-79
2021/10/08 07:12:01;;;;;;;14.17;12.50;;;;;;;12.62;70.24;100501.19;5070497;28;20229;-80
2021/10/08 07:14:49;;;;;;;18.93;12.70;;;;;;;12.81;69.76;100510.22;5076325;23;20229;-80
2021/10/08 07:17:49;;;;;;;20.90;13.80;;;;;;;13.00;69.62;100519.25;5044269;28;20170;-79
2021/10/08 07:20:48;;;;;;;16.17;12.00;;;;;;;13.01;70.09;100524.44;5073153;28;20219;-80
2021/10/08 07:23:16;;;;;;;17.73;12.87;;;;;;;13.03;69.39;100519.66;5073006;28;20192;-80
2021/10/08 07:25:57;;;;;;;18.50;13.50;;;;;;;12.97;70.53;100522.38;5054343;23;20237;-79
2021/10/08 07:28:58;;;;;;;15.87;12.60;;;;;;;12.71;70.03;100528.66;5068376;28;20240;-80
2021/10/08 07:31:29;;;;;;;18.17;13.57;;;;;;;13.06;70.39;100521.09;5073497;28;20675;-79
2021/10/08 07:34:19;;;;;;;18.23;12.53;;;;;;;13.14;70.45;100534.34;5069234;28;20239;-80
2021/10/08 07:36:55;;;;;;;18.83;12.87;;;;;;;13.21;69.75;100540.50;5077297;23;20602;-79
2021/10/08 07:39:35;;;;;;;17.53;12.67;;;;;;;13.51;68.41;100538.06;5056878;28;20222;-80
2021/10/08 07:42:13;;;;;;;17.37;11.97;;;;;;;13.40;67.98;100544.13;5160569;23;20170;-79
2021/10/08 07:44:44;;;;;;;21.10;12.57;;;;;;;13.56;66.15;100531.00;5053479;28;20225;-79
2021/10/08 07:47:12;;;;;;;16.63;11.10;;;;;;;13.82;66.29;100543.44;5073671;23;20289;-80
2021/10/08 07:50:06;;;;;;;17.00;11.80;;;;;;;13.72;65.40;100542.28;5072067;28;20223;-79
2021/10/08 07:52:42;;;;;;;15.50;10.27;;;;;;;13.79;64.52;100545.75;5071136;28;20222;-80
2021/10/08 07:55:27;;;;;;;13.93;10.53;;;;;;;13.82;63.92;100543.44;5044152;23;20224;-79
2021/10/08 07:58:00;;;;;;;14.00;10.07;;;;;;;13.94;64.01;100533.63;5029374;28;20179;-79
2021/10/08 08:00:28;;;;;;;12.43;9.77;;;;;;;13.90;62.44;100532.41;5030988;28;20217;-80
2021/10/08 08:03:09;;;;;;;16.53;10.83;;;;;;;14.04;62.84;100544.69;5030036;28;20238;-79
2021/10/08 08:05:35;;;;;;;18.77;10.73;;;;;;;14.00;63.43;100530.03;5027011;28;20587;-80
2021/10/08 08:08:03;;;;;;;17.27;10.70;;;;;;;14.21;63.69;100544.16;5029734;28;20242;-79
2021/10/08 08:10:37;;;;;;;15.33;10.90;;;;;;;14.41;62.37;100544.84;5030788;28;20207;-80
2021/10/08 08:13:05;;;;;;;18.33;11.40;;;;;;;14.19;63.39;100538.97;5028582;28;20227;-79
2021/10/08 08:15:32;;;;;;;14.47;11.13;;;;;;;14.13;63.18;100539.06;5028980;28;20246;-79
2021/10/08 08:17:58;;;;;;;13.53;10.00;;;;;;;14.30;61.44;100545.53;5030643;28;20214;-80
2021/10/08 08:20:25;;;;;;;13.13;9.40;;;;;;;14.39;60.81;100536.97;5042249;23;20240;-79
2021/10/08 08:23:32;;;;;;;14.27;9.93;;;;;;;14.64;60.55;100536.09;5024061;28;20261;-79
2021/10/08 08:26:09;;;;;;;15.20;10.70;;;;;;;14.92;61.02;100542.63;5036946;23;20215;-79
2021/10/08 08:28:50;;;;;;;14.50;10.87;;;;;;;15.16;60.29;100530.09;5006831;28;20237;-78
2021/10/08 08:31:17;;;;;;;14.97;11.07;;;;;;;15.31;59.99;100543.97;5009470;28;20279;-80
2021/10/08 08:33:49;;;;;;;16.20;11.20;;;;;;;15.58;59.46;100533.69;5013631;28;20216;-79
2021/10/08 08:36:18;;;;;;;16.97;10.93;;;;;;;15.62;58.66;100534.03;5009096;28;20221;-81
2021/10/08 08:38:47;;;;;;;12.23;9.90;;;;;;;15.60;57.51;100541.53;4989603;28;20217;-78
2021/10/08 08:41:13;;;;;;;14.67;9.93;;;;;;;15.70;56.64;100528.28;4984507;28;20249;-83
2021/10/08 08:43:59;;;;;;;12.13;9.67;;;;;;;15.79;57.40;100524.19;4976936;28;20467;-91
2021/10/08 08:46:26;;;;;;;13.53;9.43;;;;;;;15.63;56.59;100527.59;4975201;28;20241;-80
2021/10/08 08:48:53;;;;;;;11.70;8.97;;;;;;;15.13;57.47;100516.19;4944336;28;20233;-84
2021/10/08 08:51:20;;;;;;;12.87;9.53;;;;;;;14.99;57.80;100520.94;4990513;28;20246;-78
2021/10/08 08:53:48;;;;;;;11.93;9.80;;;;;;;14.64;58.19;100522.63;4990771;28;20230;-81
2021/10/08 08:56:20;;;;;;;12.50;9.73;;;;;;;14.80;58.98;100524.69;5016046;23;20231;-81
2021/10/08 08:58:47;;;;;;;13.37;9.50;;;;;;;14.96;57.91;100522.22;5032747;28;20212;-78
2021/10/08 09:01:15;;;;;;;13.83;9.37;;;;;;;15.19;58.14;100526.91;5029046;28;20298;-79
2021/10/08 09:04:03;;;;;;;11.20;9.00;;;;;;;15.41;58.31;100525.34;5027203;28;20228;-79
2021/10/08 09:06:40;;;;;;;12.97;9.87;;;;;;;15.51;56.58;100532.09;5019012;28;20228;-80
2021/10/08 09:09:15;;;;;;;12.77;8.60;;;;;;;15.47;56.38;100512.81;5026581;28;20255;-84
2021/10/08 09:11:43;;;;;;;12.00;8.53;;;;;;;15.20;55.03;100523.16;5025191;28;20327;-78
2021/10/08 09:14:20;;;;;;;12.40;8.90;;;;;;;15.47;54.35;100520.91;5027961;28;20224;-78
2021/10/08 09:17:19;;;;;;;14.47;8.57;;;;;;;15.61;55.09;100518.88;5022568;28;20240;-82
2021/10/08 09:20:00;;;;;;;11.03;8.50;;;;;;;15.57;55.25;100517.69;5021716;28;20216;-79
2021/10/08 09:22:39;;;;;;;13.67;9.60;;;;;;;15.40;56.57;100526.41;5011554;28;20282;-80
2021/10/08 09:25:18;;;;;;;9.53;7.33;;;;;;;14.77;55.31;100525.16;5048894;23;20217;-80
2021/10/08 09:28:07;;;;;;;10.77;7.70;;;;;;;15.28;55.42;100528.25;5048971;28;20207;-81
2021/10/08 09:30:48;;;;;;;11.63;8.33;;;;;;;15.69;54.27;100522.06;5049100;28;20250;-79
2021/10/08 09:33:21;;;;;;;14.03;8.10;;;;;;;16.05;54.66;100520.25;5027001;28;20215;-87
2021/10/08 09:35:52;;;;;;;14.83;8.67;;;;;;;16.39;54.18;100507.78;5018592;28;20233;-81
2021/10/08 09:38:19;;;;;;;11.37;8.37;;;;;;;16.60;51.42;100502.63;5001663;28;20260;-89
2021/10/08 09:40:48;;;;;;;13.70;8.63;;;;;;;16.43;51.95;100507.06;5017696;28;20505;-92
2021/10/08 09:43:27;;;;;;;11.90;8.50;;;;;;;16.67;52.95;100497.06;5034954;28;20289;-92
2021/10/08 09:45:56;;;;;;;14.50;8.83;;;;;;;16.63;51.93;100494.03;5017748;28;20256;-86
2021/10/08 09:48:25;;;;;;;12.77;8.40;;;;;;;16.54;52.10;100497.31;5001290;28;20229;-89
2021/10/08 09:51:13;;;;;;;13.10;8.63;;;;;;;16.24;53.13;100498.25;5019349;28;20245;-90
2021/10/08 09:53:48;;;;;;;15.60;9.00;;;;;;;15.89;52.25;100502.84;4988616;28;20231;-87
2021/10/08 09:56:39;;;;;;;18.07;8.87;;;;;;;15.69;53.79;100496.91;5022275;28;20237;-87
2021/10/08 09:59:10;;;;;;;12.97;8.93;;;;;;;15.96;54.76;100487.31;5022601;28;20235;-91
2021/10/08 10:01:38;;;;;;;12.77;8.80;;;;;;;16.13;53.70;100498.28;5021421;28;20248;-90
2021/10/08 10:04:08;;;;;;;15.53;8.93;;;;;;;16.12;52.40;100497.47;5004622;28;20259;-88
2021/10/08 10:06:39;;;;;;;11.80;8.80;;;;;;;16.14;52.40;100489.91;4988817;28;20234;-87
2021/10/08 10:09:09;;;;;;;15.03;9.10;;;;;;;15.86;55.64;100490.59;5005221;28;20236;-92
2021/10/08 10:11:36;;;;;;;11.80;9.33;;;;;;;15.43;55.44;100481.94;5006492;28;20668;-81
2021/10/08 10:14:05;;;;;;;15.10;9.40;;;;;;;15.64;55.65;100499.50;5035563;28;20229;-82
2021/10/08 10:16:34;;;;;;;13.87;9.33;;;;;;;15.52;55.64;100487.84;5051461;28;20232;-81
2021/10/08 10:19:02;;;;;;;13.27;8.60;;;;;;;15.67;56.23;100488.25;5018251;28;20743;-85
2021/10/08 10:21:48;;;;;;;11.90;7.83;;;;;;;15.52;54.73;100498.66;5028869;28;20280;-80
2021/10/08 10:24:30;;;;;;;13.20;8.70;;;;;;;15.61;54.21;100491.88;5032299;28;20311;-80
2021/10/08 10:26:57;;;;;;;13.27;8.30;;;;;;;15.71;54.35;100490.25;5032561;28;20193;-84
2021/10/08 10:29:23;;;;;;;13.00;8.40;;;;;;;15.84;54.74;100473.00;5019176;28;20233;-85
2021/10/08 10:31:52;;;;;;;11.27;8.90;;;;;;;16.11;55.22;100465.25;5017447;28;20237;-83
2021/10/08 10:34:18;;;;;;;14.47;8.93;;;;;;;16.24;54.39;100481.22;5016697;28;20555;-84
2021/10/08 10:36:45;;;;;;;12.83;7.93;;;;;;;15.48;55.26;100473.13;5022230;28;20239;-80
2021/10/08 10:39:21;;;;;;;9.63;7.57;;;;;;;15.38;54.45;100479.09;5033206;28;20206;-80
2021/10/08 10:42:13;;;;;;;12.03;8.50;;;;;;;15.89;53.71;100480.41;5045444;28;20220;-85
2021/10/08 10:45:16;;;;;;;10.90;8.20;;;;;;;16.15;53.36;100480.75;5001568;28;20238;-85
2021/10/08 10:47:46;;;;;;;15.53;8.43;;;;;;;16.49;53.25;100470.97;4939407;28;20248;-86
2021/10/08 10:50:16;;;;;;;11.27;8.77;;;;;;;16.40;52.37;100472.41;5014719;28;20236;-80
2021/10/08 10:52:55;;;;;;;13.83;8.47;;;;;;;16.29;54.38;100475.94;5032930;28;20283;-89
2021/10/08 10:55:24;;;;;;;14.63;8.77;;;;;;;16.05;55.56;100472.41;5018889;28;20661;-81
2021/10/08 10:57:58;;;;;;;12.97;8.87;;;;;;;15.71;56.46;100490.25;5032464;28;20225;-80
2021/10/08 11:00:41;;;;;;;13.13;8.20;;;;;;;16.01;56.45;100482.03;5016586;28;20225;-84
2021/10/08 11:03:14;;;;;;;10.43;8.00;;;;;;;16.48;53.67;100474.72;5018069;28;20251;-91
2021/10/08 11:06:04;;;;;;;13.47;8.20;;;;;;;17.01;52.40;100479.94;5016914;28;20237;-87
2021/10/08 11:08:31;;;;;;;9.00;7.23;;;;;;;17.28;51.59;100468.50;5016393;28;20237;-85
2021/10/08 11:11:09;;;;;;;10.47;7.43;;;;;;;17.00;51.91;100474.75;5032805;28;20234;-88
2021/10/08 11:13:37;;;;;;;14.00;8.50;;;;;;;17.08;50.75;100466.22;5017669;28;20233;-91
2021/10/08 11:16:05;;;;;;;10.93;8.07;;;;;;;17.37;48.92;100467.03;4999629;28;20281;-91
2021/10/08 11:18:49;;;;;;;11.77;7.80;;;;;;;17.56;49.55;100460.34;5032862;28;20223;-91
2021/10/08 11:21:25;;;;;;;13.40;8.47;;;;;;;17.83;49.01;100474.91;5016468;28;20231;-92
2021/10/08 11:24:16;;;;;;;15.83;8.37;;;;;;;17.36;49.71;100468.94;5020171;28;20237;-90
2021/10/08 11:26:54;;;;;;;12.80;8.40;;;;;;;17.17;50.90;100471.03;5019366;28;20233;-86
2021/10/08 11:29:22;;;;;;;12.23;8.30;;;;;;;17.30;50.53;100463.69;5035883;28;20230;-89
2021/10/08 11:32:01;;;;;;;12.83;8.43;;;;;;;17.07;51.44;100454.59;5019834;28;20613;-87
2021/10/08 11:34:28;;;;;;;13.20;9.17;;;;;;;17.24;51.48;100451.94;5019020;28;20568;-92
2021/10/08 11:36:58;;;;;;;11.77;8.07;;;;;;;17.33;51.51;100447.75;5003401;28;20314;-85
2021/10/08 11:39:25;;;;;;;12.70;8.33;;;;;;;17.32;51.91;100446.09;5003256;28;20234;-90
2021/10/08 11:42:12;;;;;;;16.00;7.73;;;;;;;16.90;51.29;100442.88;5003195;28;20288;-90
2021/10/08 11:45:05;;;;;;;11.83;7.97;;;;;;;17.34;52.08;100441.28;5004737;28;20515;-91
2021/10/08 11:47:41;;;;;;;11.27;7.93;;;;;;;17.60;51.05;100440.66;5022035;28;20283;-82
2021/10/08 11:52:39;;;;;;;11.23;7.37;;;;;;;17.56;50.41;100436.78;5019258;28;20234;-84
2021/10/08 11:55:10;;;;;;;10.60;7.20;;;;;;;17.55;51.02;100445.16;5002865;28;20232;-87
2021/10/08 11:57:50;;;;;;;11.80;7.10;;;;;;;17.24;51.21;100441.09;5019411;28;20230;-90